createdAt,value
2022-11-21T04:46:50.026Z,5.80
2022-11-21T04:49:16.749Z,5.80
2022-11-21T04:51:43.511Z,5.80
2022-11-21T04:54:11.691Z,5.80
2022-11-21T04:56:38.435Z,5.80
2022-11-21T04:59:05.127Z,5.80
2022-11-21T05:01:31.889Z,5.80
2022-11-21T05:12:20.663Z,5.70
2022-11-21T05:26:12.279Z,5.50
2022-11-21T05:28:39.085Z,5.40
2022-11-21T05:31:05.916Z,5.40
2022-11-21T05:33:32.762Z,5.40
2022-11-21T05:35:59.555Z,5.40
2022-11-21T05:38:26.321Z,5.30
2022-11-21T05:40:53.345Z,5.30
2022-11-21T05:43:42.963Z,5.30
2022-11-21T05:46:09.814Z,5.20
2022-11-21T05:48:36.979Z,5.20
2022-11-21T05:51:06.744Z,5.20
2022-11-21T05:53:35.134Z,5.20
2022-11-21T05:56:13.293Z,5.20
2022-11-21T05:58:40.699Z,5.20
2022-11-21T06:01:09.400Z,5.30
2022-11-21T06:03:38.743Z,5.40
2022-11-21T06:06:08.598Z,5.40
2022-11-21T06:08:46.173Z,5.40
2022-11-21T06:11:15.436Z,5.40
2022-11-21T06:13:42.609Z,5.40
2022-11-21T06:16:12.324Z,5.40
2022-11-21T06:18:41.377Z,5.50
2022-11-21T06:21:16.350Z,5.40
2022-11-21T06:23:43.136Z,5.40
2022-11-21T06:26:13.933Z,5.40
2022-11-21T06:28:42.306Z,5.40
2022-11-21T06:31:13.374Z,5.40
2022-11-21T06:33:41.069Z,5.40
2022-11-21T06:36:12.892Z,5.30
2022-11-21T06:38:40.168Z,5.20
2022-11-21T06:41:11.636Z,5.10
2022-11-21T06:43:38.474Z,5.00
2022-11-21T06:46:05.315Z,4.90
2022-11-21T06:48:33.274Z,4.90
2022-11-21T06:51:13.607Z,4.80
2022-11-21T06:53:40.374Z,4.90
2022-11-21T06:56:07.118Z,4.80
2022-11-21T06:58:33.901Z,4.90
2022-11-21T07:01:05.673Z,4.90
2022-11-21T07:03:32.643Z,5.00
2022-11-21T07:06:01.722Z,4.80
2022-11-21T07:08:29.828Z,4.80
2022-11-21T07:11:23.778Z,4.80
2022-11-21T07:13:47.067Z,4.90
2022-11-21T07:16:16.521Z,4.90
2022-11-21T07:18:44.541Z,4.90
2022-11-21T07:21:11.437Z,5.00
2022-11-21T07:23:38.403Z,5.10
2022-11-21T07:26:07.630Z,5.10
2022-11-21T07:28:35.318Z,5.20
2022-11-21T07:31:06.972Z,5.40
2022-11-21T07:33:35.403Z,5.50
2022-11-21T07:36:02.277Z,5.70
2022-11-21T07:38:29.008Z,5.70
2022-11-21T07:40:58.652Z,5.80
2022-11-21T07:43:25.401Z,6.00
2022-11-21T07:45:52.101Z,6.10
2022-11-21T07:48:18.878Z,6.10
2022-11-21T07:50:45.572Z,6.10
2022-11-21T07:53:13.486Z,6.10
2022-11-21T07:55:40.924Z,6.10
2022-11-21T07:58:11.190Z,6.20
2022-11-21T08:00:40.826Z,6.10
2022-11-21T08:03:07.929Z,6.00
2022-11-21T08:05:39.368Z,6.00
2022-11-21T08:08:07.288Z,6.00
2022-11-21T08:10:37.320Z,6.10
2022-11-21T08:13:04.030Z,6.40
2022-11-21T08:15:30.793Z,6.70
2022-11-21T08:17:57.549Z,7.40
2022-11-21T08:20:24.360Z,7.90
2022-11-21T08:22:51.256Z,8.10
2022-11-21T08:25:18.116Z,8.20
2022-11-21T08:27:44.925Z,8.70
2022-11-21T08:30:12.478Z,9.50
2022-11-21T08:32:39.341Z,10.10
2022-11-21T08:35:06.668Z,9.70
2022-11-21T08:37:33.626Z,9.20
2022-11-21T08:40:00.861Z,8.80
2022-11-21T08:42:27.822Z,8.50
2022-11-21T08:44:54.589Z,8.40
2022-11-21T08:47:21.869Z,8.40
2022-11-21T08:49:49.035Z,8.80
2022-11-21T08:52:17.502Z,9.60
2022-11-21T08:54:45.107Z,10.90
2022-11-21T08:57:12.726Z,11.90
2022-11-21T08:59:39.699Z,12.50
2022-11-21T09:02:06.949Z,11.70
2022-11-21T09:04:33.828Z,11.70
2022-11-21T09:07:02.160Z,12.10
2022-11-21T09:09:29.012Z,11.80
2022-11-21T09:11:55.757Z,10.70
2022-11-21T09:14:41.230Z,10.20
2022-11-21T09:17:33.965Z,11.10
2022-11-21T09:20:00.724Z,10.90
2022-11-21T09:22:27.579Z,10.20
2022-11-21T09:24:54.590Z,10.00
2022-11-21T09:27:21.365Z,10.00
2022-11-21T09:29:52.457Z,9.80
2022-11-21T09:32:21.338Z,10.30
2022-11-21T09:34:48.421Z,10.10
2022-11-21T09:37:15.480Z,9.70
2022-11-21T09:39:42.210Z,9.10
2022-11-21T09:42:33.998Z,10.00
2022-11-21T09:45:07.732Z,11.70
2022-11-21T09:47:49.817Z,13.00
2022-11-21T09:50:21.515Z,14.10
2022-11-21T09:53:03.346Z,14.60
2022-11-21T09:55:41.930Z,13.30
2022-11-21T09:58:32.930Z,12.80
2022-11-21T10:00:59.777Z,13.60
2022-11-21T10:03:30.851Z,15.60
2022-11-21T10:06:14.463Z,16.30
2022-11-21T10:08:41.284Z,15.70
2022-11-21T10:11:29.186Z,15.60
2022-11-21T10:14:24.091Z,15.70
2022-11-21T10:17:01.827Z,16.40
2022-11-21T10:19:37.326Z,17.80
2022-11-21T10:22:27.136Z,18.10
2022-11-21T10:24:59.876Z,17.70
2022-11-21T10:27:36.745Z,17.90
2022-11-21T10:30:07.032Z,18.40
2022-11-21T10:32:40.550Z,18.60
2022-11-21T10:35:22.869Z,18.70
2022-11-21T10:38:01.842Z,17.80
2022-11-21T10:40:47.620Z,17.10
2022-11-21T10:43:42.048Z,16.70
2022-11-21T10:46:09.359Z,16.10
2022-11-21T10:48:36.244Z,16.70
2022-11-21T10:51:38.016Z,17.70
2022-11-21T10:54:31.826Z,18.80
2022-11-21T10:57:00.587Z,18.40
2022-11-21T10:59:31.131Z,18.20
2022-11-21T11:02:19.696Z,17.50
2022-11-21T11:04:52.003Z,16.40
2022-11-21T11:07:22.379Z,15.40
2022-11-21T11:09:49.570Z,14.80
2022-11-21T11:12:49.616Z,14.40
2022-11-21T11:15:25.335Z,14.40
2022-11-21T11:18:09.126Z,14.80
2022-11-21T11:20:44.969Z,14.70
2022-11-21T11:23:25.261Z,14.70
2022-11-21T11:26:00.357Z,15.00
2022-11-21T11:28:35.342Z,15.00
2022-11-21T11:31:02.618Z,15.30
2022-11-21T11:33:55.886Z,15.30
2022-11-21T11:36:33.877Z,16.70
2022-11-21T11:39:10.474Z,18.40
2022-11-21T11:42:21.098Z,19.70
2022-11-21T11:45:18.454Z,19.90
2022-11-21T11:47:56.078Z,19.40
2022-11-21T11:50:30.989Z,19.40
2022-11-21T11:53:02.664Z,18.90
2022-11-21T11:55:37.790Z,18.60
2022-11-21T11:58:14.197Z,18.30
2022-11-21T12:00:50.010Z,17.90
2022-11-21T12:03:21.849Z,17.80
2022-11-21T12:06:21.687Z,17.40
2022-11-21T12:08:59.640Z,17.10
2022-11-21T12:12:00.926Z,16.90
2022-11-21T12:15:23.983Z,16.30
2022-11-21T12:18:15.377Z,16.30
2022-11-21T12:20:54.219Z,16.50
2022-11-21T12:23:24.067Z,16.00
2022-11-21T12:26:00.732Z,16.10
2022-11-21T12:28:47.841Z,16.10
2022-11-21T12:31:30.881Z,15.40
2022-11-21T12:34:22.614Z,14.80
2022-11-21T12:36:58.258Z,14.20
2022-11-21T12:39:36.958Z,13.60
2022-11-21T12:42:38.229Z,13.60
2022-11-21T12:45:33.862Z,13.60
2022-11-21T12:48:38.274Z,13.10
2022-11-21T12:51:32.577Z,13.20
2022-11-21T12:54:35.892Z,13.10
2022-11-21T12:57:02.548Z,13.00
2022-11-21T12:59:35.666Z,12.90
2022-11-21T13:02:31.926Z,13.00
2022-11-21T13:05:00.507Z,13.20
2022-11-21T13:07:31.971Z,13.50
2022-11-21T13:10:01.388Z,13.60
2022-11-21T13:12:44.329Z,13.70
2022-11-21T13:15:32.808Z,13.20
2022-11-21T13:18:15.573Z,13.20
2022-11-21T13:20:48.752Z,12.70
2022-11-21T13:23:35.675Z,12.10
2022-11-21T13:26:03.015Z,11.80
2022-11-21T13:28:31.888Z,12.00
2022-11-21T13:31:01.252Z,11.90
2022-11-21T13:33:39.506Z,11.50
2022-11-21T13:36:27.992Z,11.50
2022-11-21T13:38:54.643Z,11.20
2022-11-21T13:41:55.057Z,11.30
2022-11-21T13:44:31.537Z,11.50
2022-11-21T13:47:10.113Z,11.60
2022-11-21T13:50:03.099Z,11.70
2022-11-21T13:52:49.527Z,11.60
2022-11-21T13:55:28.299Z,11.50
2022-11-21T13:58:20.917Z,11.40
2022-11-21T14:01:09.360Z,11.30
2022-11-21T14:03:57.616Z,11.30
2022-11-21T14:06:43.543Z,11.20
2022-11-21T14:09:13.253Z,10.80
2022-11-21T14:11:59.890Z,10.70
2022-11-21T14:14:40.434Z,10.90
2022-11-21T14:17:22.195Z,10.70
2022-11-21T14:19:49.693Z,10.60
2022-11-21T14:22:35.496Z,10.50
2022-11-21T14:25:13.884Z,10.50
2022-11-21T14:27:45.382Z,10.50
2022-11-21T14:30:32.175Z,10.20
2022-11-21T14:33:21.236Z,9.90
2022-11-21T14:36:10.845Z,9.80
2022-11-21T14:38:42.410Z,9.90
2022-11-21T14:41:27.659Z,9.90
2022-11-21T14:43:57.380Z,9.70
2022-11-21T14:46:26.595Z,9.60
2022-11-21T14:48:53.787Z,9.60
2022-11-21T14:51:23.696Z,9.60
2022-11-21T14:53:53.715Z,9.60
2022-11-21T14:56:26.338Z,9.40
2022-11-21T14:58:55.354Z,9.40
2022-11-21T15:01:30.853Z,9.40
2022-11-21T15:04:06.527Z,9.30
2022-11-21T15:06:42.218Z,9.20
2022-11-21T15:12:05.756Z,9.20
2022-11-21T15:15:02.760Z,8.90
2022-11-21T15:17:30.137Z,8.50
2022-11-21T15:20:12.280Z,8.50
2022-11-21T15:22:41.385Z,8.30
2022-11-21T15:25:15.990Z,8.20
2022-11-21T15:27:43.747Z,8.30
2022-11-21T15:30:10.398Z,8.40
2022-11-21T15:33:00.949Z,8.50
2022-11-21T15:38:41.729Z,8.20
2022-11-21T15:41:08.426Z,8.20
2022-11-21T15:43:48.175Z,8.00
2022-11-21T15:46:22.722Z,8.00
2022-11-21T15:48:54.925Z,8.00
2022-11-21T15:51:51.359Z,7.80
2022-11-21T15:54:16.749Z,7.70
2022-11-21T15:56:43.977Z,7.60
2022-11-21T15:57:12.526Z,8.40
2022-11-21T15:59:10.918Z,7.60
2022-11-21T16:01:37.833Z,7.40
2022-11-21T16:04:07.180Z,7.30
2022-11-21T16:06:34.742Z,7.20
2022-11-21T16:09:02.620Z,7.10
2022-11-21T16:11:31.916Z,7.10
2022-11-21T16:14:03.393Z,7.00
2022-11-21T16:16:33.394Z,6.90
2022-11-21T16:19:00.811Z,6.90
2022-11-21T16:21:27.500Z,6.70
2022-11-21T16:23:55.531Z,6.70
2022-11-21T16:26:27.681Z,6.70
2022-11-21T16:28:59.034Z,6.70
2022-11-21T16:31:28.550Z,6.70
2022-11-21T16:33:55.875Z,6.70
2022-11-21T16:36:28.648Z,6.60
2022-11-21T16:39:00.431Z,6.60
2022-11-21T16:41:30.299Z,6.60
2022-11-21T16:43:57.081Z,6.60
2022-11-21T16:46:25.124Z,6.60
2022-11-21T16:49:00.557Z,6.50
2022-11-21T16:51:27.725Z,6.50
2022-11-21T16:53:54.695Z,6.50
2022-11-21T16:56:21.518Z,6.50
2022-11-21T16:58:48.271Z,6.50
2022-11-21T17:01:26.318Z,6.50
2022-11-21T17:03:53.375Z,6.50
2022-11-21T17:06:28.927Z,6.40
2022-11-21T17:08:55.692Z,6.40
2022-11-21T17:11:28.853Z,6.40
2022-11-21T17:13:57.158Z,6.40
2022-11-21T17:16:24.172Z,6.50
2022-11-21T17:18:55.333Z,6.50
2022-11-21T17:21:22.625Z,6.50
2022-11-21T17:23:49.625Z,6.50
2022-11-21T17:26:19.360Z,6.50
2022-11-21T17:28:52.109Z,6.40
2022-11-21T17:31:19.323Z,6.50
2022-11-21T17:33:50.186Z,6.40
2022-11-21T17:36:22.160Z,6.40
2022-11-21T17:38:50.174Z,6.40
2022-11-21T17:41:19.388Z,6.30
2022-11-21T17:43:47.269Z,6.40
2022-11-21T17:46:19.988Z,6.40
2022-11-21T17:48:54.562Z,6.50
2022-11-21T17:51:34.776Z,6.50
2022-11-21T17:54:02.327Z,6.50
2022-11-21T17:56:31.758Z,6.60
2022-11-21T17:58:58.730Z,6.60
2022-11-21T18:01:25.707Z,6.50
2022-11-21T18:03:56.942Z,6.50
2022-11-21T18:06:25.051Z,6.50
2022-11-21T18:08:51.787Z,6.40
2022-11-21T18:11:23.868Z,6.40
2022-11-21T18:13:50.964Z,6.40
2022-11-21T18:16:21.681Z,6.40
2022-11-21T18:18:49.777Z,6.50
2022-11-21T18:21:19.038Z,6.50
2022-11-21T18:23:47.213Z,6.50
2022-11-21T18:26:22.590Z,6.60
2022-11-21T18:29:01.804Z,6.60
2022-11-21T18:31:38.377Z,6.60
2022-11-21T18:34:06.627Z,6.70
2022-11-21T18:36:33.438Z,6.70
2022-11-21T18:39:07.336Z,6.70
2022-11-21T18:41:37.763Z,6.40
2022-11-21T18:44:06.495Z,6.30
2022-11-21T18:46:36.092Z,6.20
2022-11-21T18:49:06.372Z,6.30
2022-11-21T18:51:34.073Z,6.50
2022-11-21T18:54:05.442Z,6.60
2022-11-21T18:56:32.459Z,6.40
2022-11-21T18:58:59.668Z,6.50
2022-11-21T19:01:28.806Z,6.50
2022-11-21T19:03:56.502Z,6.40
2022-11-21T19:06:25.499Z,6.60
2022-11-21T19:08:53.959Z,6.50
2022-11-21T19:11:24.268Z,6.50
2022-11-21T19:13:52.003Z,6.60
2022-11-21T19:16:21.303Z,6.60
2022-11-21T19:19:05.511Z,6.70
2022-11-21T19:21:39.133Z,6.70
2022-11-21T19:24:07.013Z,6.70
2022-11-21T19:26:33.805Z,6.70
2022-11-21T19:29:00.744Z,6.70
2022-11-21T19:31:27.915Z,6.80
2022-11-21T19:33:54.637Z,6.70
2022-11-21T19:36:23.138Z,6.70
2022-11-21T19:38:51.785Z,6.70
2022-11-21T19:41:26.108Z,6.70
2022-11-21T19:43:55.133Z,6.70
2022-11-21T19:46:31.196Z,6.70
2022-11-21T19:48:58.887Z,6.70
2022-11-21T19:51:33.304Z,6.60
2022-11-21T19:54:02.174Z,6.60
2022-11-21T19:56:28.960Z,6.60
2022-11-21T19:58:56.867Z,6.60
2022-11-21T20:01:26.509Z,6.70
2022-11-21T20:03:55.827Z,6.70
2022-11-21T20:06:25.686Z,6.70
2022-11-21T20:08:55.319Z,6.70
2022-11-21T20:11:23.692Z,6.70
2022-11-21T20:13:51.256Z,6.70
2022-11-21T20:16:21.177Z,6.70
2022-11-21T20:18:48.570Z,6.70
2022-11-21T20:21:16.069Z,6.60
2022-11-21T20:23:43.132Z,6.70
2022-11-21T20:26:10.070Z,6.70
2022-11-21T20:28:37.554Z,6.80
2022-11-21T20:31:05.140Z,6.80
2022-11-21T20:33:38.275Z,6.80
2022-11-21T20:36:18.653Z,6.90
2022-11-21T20:38:56.840Z,6.90
2022-11-21T20:41:35.453Z,6.90
2022-11-21T20:46:52.023Z,6.80
2022-11-21T20:49:18.776Z,6.80
2022-11-21T20:54:32.626Z,6.80
2022-11-21T20:56:59.482Z,6.80
2022-11-21T20:59:26.560Z,6.80
2022-11-21T21:01:53.401Z,6.80
2022-11-21T21:04:20.636Z,6.70
2022-11-21T21:06:47.319Z,6.80
2022-11-21T21:09:14.296Z,6.70
2022-11-21T21:11:56.450Z,6.80
2022-11-21T21:14:23.211Z,6.70
2022-11-21T21:16:50.493Z,6.60
2022-11-21T21:19:17.854Z,6.60
2022-11-21T21:21:44.855Z,6.60
2022-11-21T21:24:12.281Z,6.70
2022-11-21T21:26:47.710Z,6.70
2022-11-21T21:29:20.068Z,6.60
2022-11-21T21:31:51.560Z,6.60
2022-11-21T21:34:22.831Z,6.50
2022-11-21T21:36:50.815Z,6.50
2022-11-21T21:39:17.754Z,6.60
2022-11-21T21:41:46.182Z,6.60
2022-11-21T21:44:14.036Z,6.70
2022-11-21T21:46:40.888Z,6.70
2022-11-21T21:49:08.083Z,6.70
2022-11-21T21:51:37.176Z,6.70
2022-11-21T21:54:04.882Z,6.70
2022-11-21T21:56:32.152Z,6.60
2022-11-21T21:58:59.454Z,6.60
2022-11-21T22:01:29.382Z,6.50
2022-11-21T22:04:01.467Z,6.50
2022-11-21T22:06:28.652Z,6.50
2022-11-21T22:08:56.168Z,6.40
2022-11-21T22:11:29.389Z,6.40
2022-11-21T22:13:59.210Z,6.30
2022-11-21T22:16:26.311Z,6.30
2022-11-21T22:18:53.652Z,6.40
2022-11-21T22:21:25.135Z,6.40
2022-11-21T22:26:39.011Z,6.30
2022-11-21T22:29:06.009Z,6.30
2022-11-21T22:31:33.160Z,6.40
2022-11-21T22:34:00.621Z,6.20
2022-11-21T22:36:27.383Z,6.10
2022-11-21T22:38:55.562Z,5.90
2022-11-21T22:41:24.964Z,6.00
2022-11-21T22:43:54.680Z,6.00
2022-11-21T22:46:22.712Z,6.10
2022-11-21T22:48:50.106Z,6.10
2022-11-21T22:51:22.897Z,6.20
2022-11-21T22:53:50.474Z,6.20
2022-11-21T22:56:19.605Z,6.20
2022-11-21T22:58:46.643Z,6.30
2022-11-21T23:01:20.084Z,6.20
2022-11-21T23:03:47.632Z,6.10
2022-11-21T23:06:16.911Z,6.10
2022-11-21T23:08:44.132Z,6.10
2022-11-21T23:11:16.909Z,6.10
2022-11-21T23:13:45.473Z,6.20
2022-11-21T23:16:13.174Z,6.00
2022-11-21T23:18:40.490Z,5.90
2022-11-21T23:21:08.413Z,5.90
2022-11-21T23:23:35.813Z,5.80
2022-11-21T23:26:03.733Z,5.90
2022-11-21T23:28:31.102Z,5.90
2022-11-21T23:30:58.093Z,5.80
2022-11-21T23:33:24.909Z,5.80
2022-11-21T23:35:51.724Z,6.00
2022-11-21T23:38:19.441Z,5.90
2022-11-21T23:40:47.818Z,5.90
2022-11-21T23:43:15.487Z,6.00
2022-11-21T23:45:42.588Z,6.00
2022-11-21T23:48:09.313Z,6.00
2022-11-21T23:50:36.127Z,6.00
2022-11-21T23:53:03.338Z,6.00
2022-11-21T23:55:30.178Z,6.00
2022-11-21T23:57:56.957Z,6.00
